sensor_id;sensor_type;location;lat;lon;timestamp;P1;durP1;ratioP1;P2;durP2;ratioP2
17251;SDS011;8742;51.716;8.790;2023-06-22T00:00:47;32.90;;;18.30;;
17251;SDS011;8742;51.716;8.790;2023-06-22T00:03:15;26.53;;;17.77;;
17251;SDS011;8742;51.716;8.790;2023-06-22T00:05:43;27.40;;;19.60;;
17251;SDS011;8742;51.716;8.790;2023-06-22T00:08:10;27.60;;;17.87;;
17251;SDS011;8742;51.716;8.790;2023-06-22T00:10:37;24.50;;;17.00;;
17251;SDS011;8742;51.716;8.790;2023-06-22T00:13:03;23.97;;;16.07;;
17251;SDS011;8742;51.716;8.790;2023-06-22T00:15:31;23.07;;;15.10;;
17251;SDS011;8742;51.716;8.790;2023-06-22T00:17:58;28.13;;;14.87;;
17251;SDS011;8742;51.716;8.790;2023-06-22T00:20:25;27.00;;;16.10;;
17251;SDS011;8742;51.716;8.790;2023-06-22T00:22:54;25.77;;;16.53;;
17251;SDS011;8742;51.716;8.790;2023-06-22T00:25:21;26.77;;;14.07;;
17251;SDS011;8742;51.716;8.790;2023-06-22T00:27:48;21.10;;;14.80;;
17251;SDS011;8742;51.716;8.790;2023-06-22T00:30:15;25.33;;;15.33;;
17251;SDS011;8742;51.716;8.790;2023-06-22T00:32:43;27.67;;;16.60;;
17251;SDS011;8742;51.716;8.790;2023-06-22T00:37:37;29.33;;;17.63;;
17251;SDS011;8742;51.716;8.790;2023-06-22T00:40:09;27.73;;;17.87;;
17251;SDS011;8742;51.716;8.790;2023-06-22T00:42:37;27.20;;;17.40;;
17251;SDS011;8742;51.716;8.790;2023-06-22T00:45:04;26.07;;;16.77;;
17251;SDS011;8742;51.716;8.790;2023-06-22T00:47:32;27.53;;;16.93;;
17251;SDS011;8742;51.716;8.790;2023-06-22T00:50:01;25.30;;;16.57;;
17251;SDS011;8742;51.716;8.790;2023-06-22T00:52:29;26.40;;;16.53;;
17251;SDS011;8742;51.716;8.790;2023-06-22T00:54:58;35.37;;;16.53;;
17251;SDS011;8742;51.716;8.790;2023-06-22T00:57:29;27.53;;;16.80;;
17251;SDS011;8742;51.716;8.790;2023-06-22T00:59:57;24.17;;;16.17;;
17251;SDS011;8742;51.716;8.790;2023-06-22T01:02:24;21.93;;;14.10;;
17251;SDS011;8742;51.716;8.790;2023-06-22T01:04:51;23.40;;;13.80;;
17251;SDS011;8742;51.716;8.790;2023-06-22T01:07:22;22.70;;;15.00;;
17251;SDS011;8742;51.716;8.790;2023-06-22T01:09:57;22.00;;;14.53;;
17251;SDS011;8742;51.716;8.790;2023-06-22T01:12:30;22.27;;;14.00;;
17251;SDS011;8742;51.716;8.790;2023-06-22T01:15:02;23.03;;;14.37;;
17251;SDS011;8742;51.716;8.790;2023-06-22T01:17:36;26.57;;;14.93;;
17251;SDS011;8742;51.716;8.790;2023-06-22T01:20:08;22.03;;;14.63;;
17251;SDS011;8742;51.716;8.790;2023-06-22T01:22:39;27.27;;;15.40;;
17251;SDS011;8742;51.716;8.790;2023-06-22T01:25:19;28.43;;;15.33;;
17251;SDS011;8742;51.716;8.790;2023-06-22T01:27:56;22.40;;;15.30;;
17251;SDS011;8742;51.716;8.790;2023-06-22T01:30:30;33.17;;;15.43;;
17251;SDS011;8742;51.716;8.790;2023-06-22T01:35:49;26.60;;;15.47;;
17251;SDS011;8742;51.716;8.790;2023-06-22T01:38:16;31.00;;;15.57;;
17251;SDS011;8742;51.716;8.790;2023-06-22T01:40:43;23.70;;;15.80;;
17251;SDS011;8742;51.716;8.790;2023-06-22T01:43:10;24.97;;;15.30;;
17251;SDS011;8742;51.716;8.790;2023-06-22T01:45:39;25.63;;;15.20;;
17251;SDS011;8742;51.716;8.790;2023-06-22T01:48:06;21.70;;;14.23;;
17251;SDS011;8742;51.716;8.790;2023-06-22T01:50:34;23.67;;;15.80;;
17251;SDS011;8742;51.716;8.790;2023-06-22T01:53:01;26.03;;;15.60;;
17251;SDS011;8742;51.716;8.790;2023-06-22T01:55:28;21.37;;;14.60;;
17251;SDS011;8742;51.716;8.790;2023-06-22T01:57:55;29.33;;;15.13;;
17251;SDS011;8742;51.716;8.790;2023-06-22T02:00:22;22.13;;;14.47;;
17251;SDS011;8742;51.716;8.790;2023-06-22T02:02:53;24.03;;;15.63;;
17251;SDS011;8742;51.716;8.790;2023-06-22T02:05:24;24.50;;;13.87;;
17251;SDS011;8742;51.716;8.790;2023-06-22T02:07:59;27.53;;;14.17;;
17251;SDS011;8742;51.716;8.790;2023-06-22T02:10:31;24.73;;;14.33;;
17251;SDS011;8742;51.716;8.790;2023-06-22T02:13:00;25.70;;;15.13;;
17251;SDS011;8742;51.716;8.790;2023-06-22T02:15:28;25.73;;;15.20;;
17251;SDS011;8742;51.716;8.790;2023-06-22T02:17:57;27.70;;;14.70;;
17251;SDS011;8742;51.716;8.790;2023-06-22T02:20:25;20.17;;;14.50;;
17251;SDS011;8742;51.716;8.790;2023-06-22T02:22:52;25.37;;;13.90;;
17251;SDS011;8742;51.716;8.790;2023-06-22T02:25:19;23.40;;;13.97;;
17251;SDS011;8742;51.716;8.790;2023-06-22T02:27:46;19.37;;;13.53;;
17251;SDS011;8742;51.716;8.790;2023-06-22T02:30:14;19.53;;;13.10;;
17251;SDS011;8742;51.716;8.790;2023-06-22T02:32:41;21.50;;;14.10;;
17251;SDS011;8742;51.716;8.790;2023-06-22T02:35:10;28.67;;;16.17;;
17251;SDS011;8742;51.716;8.790;2023-06-22T02:37:37;24.87;;;14.47;;
17251;SDS011;8742;51.716;8.790;2023-06-22T02:40:07;22.17;;;13.63;;
17251;SDS011;8742;51.716;8.790;2023-06-22T02:42:35;30.77;;;14.17;;
17251;SDS011;8742;51.716;8.790;2023-06-22T02:45:02;22.80;;;14.50;;
17251;SDS011;8742;51.716;8.790;2023-06-22T02:47:30;22.07;;;13.77;;
17251;SDS011;8742;51.716;8.790;2023-06-22T02:49:57;20.97;;;13.17;;
17251;SDS011;8742;51.716;8.790;2023-06-22T02:52:25;20.57;;;13.30;;
17251;SDS011;8742;51.716;8.790;2023-06-22T02:54:52;20.30;;;13.03;;
17251;SDS011;8742;51.716;8.790;2023-06-22T02:57:19;21.10;;;13.30;;
17251;SDS011;8742;51.716;8.790;2023-06-22T02:59:46;15.60;;;12.33;;
17251;SDS011;8742;51.716;8.790;2023-06-22T03:02:12;16.87;;;12.00;;
17251;SDS011;8742;51.716;8.790;2023-06-22T03:04:39;24.67;;;13.30;;
17251;SDS011;8742;51.716;8.790;2023-06-22T03:07:07;25.30;;;13.63;;
17251;SDS011;8742;51.716;8.790;2023-06-22T03:09:35;19.47;;;12.63;;
17251;SDS011;8742;51.716;8.790;2023-06-22T03:12:02;20.10;;;13.37;;
17251;SDS011;8742;51.716;8.790;2023-06-22T03:14:30;23.87;;;13.53;;
17251;SDS011;8742;51.716;8.790;2023-06-22T03:16:57;21.17;;;14.27;;
17251;SDS011;8742;51.716;8.790;2023-06-22T03:19:28;21.43;;;13.10;;
17251;SDS011;8742;51.716;8.790;2023-06-22T03:21:56;18.57;;;13.10;;
17251;SDS011;8742;51.716;8.790;2023-06-22T03:24:23;20.43;;;13.17;;
17251;SDS011;8742;51.716;8.790;2023-06-22T03:26:51;16.53;;;12.83;;
17251;SDS011;8742;51.716;8.790;2023-06-22T03:29:19;21.63;;;13.23;;
17251;SDS011;8742;51.716;8.790;2023-06-22T03:31:46;19.73;;;13.10;;
17251;SDS011;8742;51.716;8.790;2023-06-22T03:34:13;15.47;;;11.20;;
17251;SDS011;8742;51.716;8.790;2023-06-22T03:36:40;19.17;;;12.70;;
17251;SDS011;8742;51.716;8.790;2023-06-22T03:39:10;14.07;;;11.57;;
17251;SDS011;8742;51.716;8.790;2023-06-22T03:41:37;19.10;;;12.27;;
17251;SDS011;8742;51.716;8.790;2023-06-22T03:44:05;18.17;;;12.10;;
17251;SDS011;8742;51.716;8.790;2023-06-22T03:46:35;17.87;;;11.03;;
17251;SDS011;8742;51.716;8.790;2023-06-22T03:49:02;20.87;;;12.53;;
17251;SDS011;8742;51.716;8.790;2023-06-22T03:51:30;16.93;;;11.60;;
17251;SDS011;8742;51.716;8.790;2023-06-22T03:53:58;16.03;;;11.87;;
17251;SDS011;8742;51.716;8.790;2023-06-22T03:56:25;16.93;;;11.00;;
17251;SDS011;8742;51.716;8.790;2023-06-22T03:58:51;18.87;;;11.87;;
17251;SDS011;8742;51.716;8.790;2023-06-22T04:01:20;19.27;;;11.23;;
17251;SDS011;8742;51.716;8.790;2023-06-22T04:03:47;18.50;;;10.73;;
17251;SDS011;8742;51.716;8.790;2023-06-22T04:06:14;19.93;;;11.07;;
17251;SDS011;8742;51.716;8.790;2023-06-22T04:08:41;19.87;;;10.97;;
17251;SDS011;8742;51.716;8.790;2023-06-22T04:11:09;18.33;;;11.87;;
17251;SDS011;8742;51.716;8.790;2023-06-22T04:13:36;14.70;;;10.77;;
17251;SDS011;8742;51.716;8.790;2023-06-22T04:16:03;17.43;;;10.83;;
17251;SDS011;8742;51.716;8.790;2023-06-22T04:18:31;15.10;;;10.93;;
17251;SDS011;8742;51.716;8.790;2023-06-22T04:20:58;15.30;;;10.87;;
17251;SDS011;8742;51.716;8.790;2023-06-22T04:23:25;14.87;;;10.67;;
17251;SDS011;8742;51.716;8.790;2023-06-22T04:25:52;16.20;;;11.53;;
17251;SDS011;8742;51.716;8.790;2023-06-22T04:28:21;17.90;;;11.27;;
17251;SDS011;8742;51.716;8.790;2023-06-22T04:30:48;20.10;;;11.17;;
17251;SDS011;8742;51.716;8.790;2023-06-22T04:33:16;22.40;;;11.60;;
17251;SDS011;8742;51.716;8.790;2023-06-22T04:35:45;17.50;;;11.87;;
17251;SDS011;8742;51.716;8.790;2023-06-22T04:38:12;13.23;;;10.20;;
17251;SDS011;8742;51.716;8.790;2023-06-22T04:40:39;18.93;;;11.17;;
17251;SDS011;8742;51.716;8.790;2023-06-22T04:43:06;15.03;;;11.20;;
17251;SDS011;8742;51.716;8.790;2023-06-22T04:45:35;14.27;;;10.93;;
17251;SDS011;8742;51.716;8.790;2023-06-22T04:48:03;13.17;;;10.63;;
17251;SDS011;8742;51.716;8.790;2023-06-22T04:50:30;14.77;;;10.90;;
17251;SDS011;8742;51.716;8.790;2023-06-22T04:52:59;14.93;;;10.20;;
17251;SDS011;8742;51.716;8.790;2023-06-22T04:55:30;15.07;;;10.73;;
17251;SDS011;8742;51.716;8.790;2023-06-22T04:57:57;13.20;;;10.10;;
17251;SDS011;8742;51.716;8.790;2023-06-22T05:00:29;17.87;;;10.20;;
17251;SDS011;8742;51.716;8.790;2023-06-22T05:02:57;13.70;;;9.93;;
17251;SDS011;8742;51.716;8.790;2023-06-22T05:05:24;11.87;;;9.23;;
17251;SDS011;8742;51.716;8.790;2023-06-22T05:07:51;14.33;;;9.33;;
17251;SDS011;8742;51.716;8.790;2023-06-22T05:10:21;15.67;;;10.13;;
17251;SDS011;8742;51.716;8.790;2023-06-22T05:12:48;11.57;;;9.57;;
17251;SDS011;8742;51.716;8.790;2023-06-22T05:15:15;11.07;;;9.57;;
17251;SDS011;8742;51.716;8.790;2023-06-22T05:17:44;11.87;;;9.60;;
17251;SDS011;8742;51.716;8.790;2023-06-22T05:20:12;15.40;;;10.27;;
17251;SDS011;8742;51.716;8.790;2023-06-22T05:22:43;14.60;;;10.17;;
17251;SDS011;8742;51.716;8.790;2023-06-22T05:25:10;17.73;;;9.97;;
17251;SDS011;8742;51.716;8.790;2023-06-22T05:27:39;14.07;;;10.47;;
17251;SDS011;8742;51.716;8.790;2023-06-22T05:30:06;13.63;;;10.00;;
17251;SDS011;8742;51.716;8.790;2023-06-22T05:32:34;12.63;;;10.13;;
17251;SDS011;8742;51.716;8.790;2023-06-22T05:35:01;14.10;;;9.73;;
17251;SDS011;8742;51.716;8.790;2023-06-22T05:37:28;12.20;;;10.30;;
17251;SDS011;8742;51.716;8.790;2023-06-22T05:39:55;11.93;;;9.07;;
17251;SDS011;8742;51.716;8.790;2023-06-22T05:42:23;13.97;;;9.40;;
17251;SDS011;8742;51.716;8.790;2023-06-22T05:44:52;11.93;;;9.20;;
17251;SDS011;8742;51.716;8.790;2023-06-22T05:47:19;11.73;;;9.20;;
17251;SDS011;8742;51.716;8.790;2023-06-22T05:49:47;13.47;;;8.87;;
17251;SDS011;8742;51.716;8.790;2023-06-22T05:52:14;11.03;;;9.00;;
17251;SDS011;8742;51.716;8.790;2023-06-22T05:54:41;14.00;;;8.80;;
17251;SDS011;8742;51.716;8.790;2023-06-22T05:57:08;11.97;;;8.53;;
17251;SDS011;8742;51.716;8.790;2023-06-22T05:59:36;11.27;;;7.80;;
17251;SDS011;8742;51.716;8.790;2023-06-22T06:02:05;10.40;;;8.43;;
17251;SDS011;8742;51.716;8.790;2023-06-22T06:04:32;12.30;;;9.20;;
17251;SDS011;8742;51.716;8.790;2023-06-22T06:06:59;11.10;;;8.40;;
17251;SDS011;8742;51.716;8.790;2023-06-22T06:09:26;11.20;;;8.60;;
17251;SDS011;8742;51.716;8.790;2023-06-22T06:11:53;10.97;;;8.23;;
17251;SDS011;8742;51.716;8.790;2023-06-22T06:14:20;12.90;;;8.23;;
17251;SDS011;8742;51.716;8.790;2023-06-22T06:16:48;11.03;;;8.17;;
17251;SDS011;8742;51.716;8.790;2023-06-22T06:19:16;13.53;;;8.73;;
17251;SDS011;8742;51.716;8.790;2023-06-22T06:21:43;15.57;;;8.90;;
17251;SDS011;8742;51.716;8.790;2023-06-22T06:24:11;13.97;;;9.07;;
17251;SDS011;8742;51.716;8.790;2023-06-22T06:26:38;20.90;;;8.47;;
17251;SDS011;8742;51.716;8.790;2023-06-22T06:29:06;11.87;;;8.80;;
17251;SDS011;8742;51.716;8.790;2023-06-22T06:31:33;10.57;;;8.07;;
17251;SDS011;8742;51.716;8.790;2023-06-22T06:34:00;12.60;;;8.87;;
17251;SDS011;8742;51.716;8.790;2023-06-22T06:36:28;13.53;;;9.83;;
17251;SDS011;8742;51.716;8.790;2023-06-22T06:38:55;13.87;;;10.13;;
17251;SDS011;8742;51.716;8.790;2023-06-22T06:41:22;18.33;;;10.57;;
17251;SDS011;8742;51.716;8.790;2023-06-22T06:43:49;14.00;;;10.43;;
17251;SDS011;8742;51.716;8.790;2023-06-22T06:46:17;14.07;;;10.07;;
17251;SDS011;8742;51.716;8.790;2023-06-22T06:48:44;20.57;;;11.67;;
17251;SDS011;8742;51.716;8.790;2023-06-22T06:51:11;14.77;;;11.17;;
17251;SDS011;8742;51.716;8.790;2023-06-22T06:53:39;18.27;;;11.70;;
17251;SDS011;8742;51.716;8.790;2023-06-22T06:56:06;15.90;;;11.80;;
17251;SDS011;8742;51.716;8.790;2023-06-22T06:58:35;16.20;;;11.13;;
17251;SDS011;8742;51.716;8.790;2023-06-22T07:01:02;16.30;;;11.87;;
17251;SDS011;8742;51.716;8.790;2023-06-22T07:03:29;15.60;;;11.77;;
17251;SDS011;8742;51.716;8.790;2023-06-22T07:05:58;15.40;;;11.93;;
17251;SDS011;8742;51.716;8.790;2023-06-22T07:08:25;26.33;;;14.00;;
17251;SDS011;8742;51.716;8.790;2023-06-22T07:10:54;16.90;;;12.53;;
17251;SDS011;8742;51.716;8.790;2023-06-22T07:13:21;13.27;;;10.73;;
17251;SDS011;8742;51.716;8.790;2023-06-22T07:15:48;14.03;;;10.93;;
17251;SDS011;8742;51.716;8.790;2023-06-22T07:18:15;14.67;;;10.67;;
17251;SDS011;8742;51.716;8.790;2023-06-22T07:20:42;17.20;;;11.70;;
17251;SDS011;8742;51.716;8.790;2023-06-22T07:23:09;12.53;;;9.67;;
17251;SDS011;8742;51.716;8.790;2023-06-22T07:25:35;12.53;;;9.53;;
17251;SDS011;8742;51.716;8.790;2023-06-22T07:28:05;14.13;;;10.50;;
17251;SDS011;8742;51.716;8.790;2023-06-22T07:30:33;14.77;;;10.37;;
17251;SDS011;8742;51.716;8.790;2023-06-22T07:33:01;14.50;;;9.43;;
17251;SDS011;8742;51.716;8.790;2023-06-22T07:35:29;13.20;;;8.67;;
17251;SDS011;8742;51.716;8.790;2023-06-22T07:37:56;10.83;;;8.50;;
17251;SDS011;8742;51.716;8.790;2023-06-22T07:40:23;23.30;;;10.33;;
17251;SDS011;8742;51.716;8.790;2023-06-22T07:42:50;8.67;;;7.40;;
17251;SDS011;8742;51.716;8.790;2023-06-22T07:45:20;12.90;;;8.80;;
17251;SDS011;8742;51.716;8.790;2023-06-22T07:47:47;12.30;;;8.03;;
17251;SDS011;8742;51.716;8.790;2023-06-22T07:50:14;14.60;;;8.40;;
17251;SDS011;8742;51.716;8.790;2023-06-22T07:52:41;10.07;;;7.67;;
17251;SDS011;8742;51.716;8.790;2023-06-22T07:55:08;8.73;;;7.37;;
17251;SDS011;8742;51.716;8.790;2023-06-22T07:57:35;8.40;;;7.17;;
17251;SDS011;8742;51.716;8.790;2023-06-22T08:00:02;7.60;;;6.63;;
17251;SDS011;8742;51.716;8.790;2023-06-22T08:02:41;10.80;;;7.13;;
17251;SDS011;8742;51.716;8.790;2023-06-22T08:05:14;10.10;;;6.67;;
17251;SDS011;8742;51.716;8.790;2023-06-22T08:07:42;10.33;;;7.50;;
17251;SDS011;8742;51.716;8.790;2023-06-22T08:10:10;10.03;;;7.07;;
17251;SDS011;8742;51.716;8.790;2023-06-22T08:12:37;11.00;;;7.87;;
17251;SDS011;8742;51.716;8.790;2023-06-22T08:15:05;8.97;;;6.57;;
17251;SDS011;8742;51.716;8.790;2023-06-22T08:17:34;8.95;;;6.97;;
17251;SDS011;8742;51.716;8.790;2023-06-22T08:20:05;9.05;;;6.93;;
17251;SDS011;8742;51.716;8.790;2023-06-22T08:22:36;19.85;;;8.00;;
17251;SDS011;8742;51.716;8.790;2023-06-22T08:25:04;10.00;;;7.72;;
17251;SDS011;8742;51.716;8.790;2023-06-22T08:27:31;10.40;;;7.47;;
17251;SDS011;8742;51.716;8.790;2023-06-22T08:29:58;10.27;;;7.55;;
17251;SDS011;8742;51.716;8.790;2023-06-22T08:32:26;9.52;;;7.68;;
17251;SDS011;8742;51.716;8.790;2023-06-22T08:34:53;9.57;;;7.50;;
17251;SDS011;8742;51.716;8.790;2023-06-22T08:37:25;9.02;;;7.30;;
17251;SDS011;8742;51.716;8.790;2023-06-22T08:39:55;10.30;;;7.93;;
17251;SDS011;8742;51.716;8.790;2023-06-22T08:42:22;10.48;;;7.55;;
17251;SDS011;8742;51.716;8.790;2023-06-22T08:44:50;9.00;;;7.22;;
17251;SDS011;8742;51.716;8.790;2023-06-22T08:47:18;8.85;;;7.38;;
17251;SDS011;8742;51.716;8.790;2023-06-22T08:49:45;10.52;;;6.97;;
17251;SDS011;8742;51.716;8.790;2023-06-22T08:52:12;11.38;;;6.80;;
17251;SDS011;8742;51.716;8.790;2023-06-22T08:54:40;8.15;;;6.65;;
17251;SDS011;8742;51.716;8.790;2023-06-22T08:57:07;9.60;;;7.15;;
17251;SDS011;8742;51.716;8.790;2023-06-22T08:59:34;7.28;;;6.18;;
17251;SDS011;8742;51.716;8.790;2023-06-22T09:02:01;9.18;;;6.57;;
17251;SDS011;8742;51.716;8.790;2023-06-22T09:04:28;6.68;;;5.82;;
17251;SDS011;8742;51.716;8.790;2023-06-22T09:06:59;9.52;;;6.32;;
17251;SDS011;8742;51.716;8.790;2023-06-22T09:09:26;10.18;;;6.55;;
17251;SDS011;8742;51.716;8.790;2023-06-22T09:11:54;13.13;;;6.10;;
17251;SDS011;8742;51.716;8.790;2023-06-22T09:14:21;7.30;;;6.13;;
17251;SDS011;8742;51.716;8.790;2023-06-22T09:16:52;6.57;;;5.68;;
17251;SDS011;8742;51.716;8.790;2023-06-22T09:19:19;8.00;;;6.15;;
17251;SDS011;8742;51.716;8.790;2023-06-22T09:21:46;8.65;;;6.28;;
17251;SDS011;8742;51.716;8.790;2023-06-22T09:24:13;6.50;;;5.72;;
17251;SDS011;8742;51.716;8.790;2023-06-22T09:26:40;47.90;;;10.18;;
17251;SDS011;8742;51.716;8.790;2023-06-22T09:29:08;15.20;;;6.28;;
17251;SDS011;8742;51.716;8.790;2023-06-22T09:31:36;12.32;;;6.30;;
17251;SDS011;8742;51.716;8.790;2023-06-22T09:34:04;10.32;;;5.97;;
17251;SDS011;8742;51.716;8.790;2023-06-22T09:36:31;6.90;;;5.72;;
17251;SDS011;8742;51.716;8.790;2023-06-22T09:38:58;10.35;;;5.78;;
17251;SDS011;8742;51.716;8.790;2023-06-22T09:41:31;6.75;;;5.80;;
17251;SDS011;8742;51.716;8.790;2023-06-22T09:43:58;7.45;;;6.32;;
17251;SDS011;8742;51.716;8.790;2023-06-22T09:46:26;8.30;;;6.35;;
17251;SDS011;8742;51.716;8.790;2023-06-22T09:48:53;9.05;;;6.03;;
17251;SDS011;8742;51.716;8.790;2023-06-22T09:51:22;11.80;;;6.80;;
17251;SDS011;8742;51.716;8.790;2023-06-22T09:53:49;17.48;;;6.57;;
17251;SDS011;8742;51.716;8.790;2023-06-22T09:56:18;30.52;;;7.68;;
17251;SDS011;8742;51.716;8.790;2023-06-22T09:58:46;9.50;;;6.50;;
17251;SDS011;8742;51.716;8.790;2023-06-22T10:01:15;10.15;;;7.03;;
17251;SDS011;8742;51.716;8.790;2023-06-22T10:03:44;6.88;;;6.18;;
17251;SDS011;8742;51.716;8.790;2023-06-22T10:06:11;9.23;;;6.60;;
17251;SDS011;8742;51.716;8.790;2023-06-22T10:08:38;7.95;;;6.57;;
17251;SDS011;8742;51.716;8.790;2023-06-22T10:11:05;7.60;;;6.18;;
17251;SDS011;8742;51.716;8.790;2023-06-22T10:13:32;8.65;;;6.95;;
17251;SDS011;8742;51.716;8.790;2023-06-22T10:15:59;8.38;;;6.32;;
17251;SDS011;8742;51.716;8.790;2023-06-22T10:18:26;9.13;;;6.63;;
17251;SDS011;8742;51.716;8.790;2023-06-22T10:20:55;8.10;;;6.80;;
17251;SDS011;8742;51.716;8.790;2023-06-22T10:23:22;8.13;;;6.13;;
17251;SDS011;8742;51.716;8.790;2023-06-22T10:25:49;11.60;;;6.20;;
17251;SDS011;8742;51.716;8.790;2023-06-22T10:28:16;7.82;;;6.53;;
17251;SDS011;8742;51.716;8.790;2023-06-22T10:30:43;6.93;;;6.18;;
17251;SDS011;8742;51.716;8.790;2023-06-22T10:33:10;7.15;;;6.30;;
17251;SDS011;8742;51.716;8.790;2023-06-22T10:35:38;8.98;;;6.78;;
17251;SDS011;8742;51.716;8.790;2023-06-22T10:38:08;8.98;;;6.30;;
17251;SDS011;8742;51.716;8.790;2023-06-22T10:40:36;8.23;;;6.75;;
17251;SDS011;8742;51.716;8.790;2023-06-22T10:43:04;7.18;;;6.47;;
17251;SDS011;8742;51.716;8.790;2023-06-22T10:45:31;10.20;;;6.93;;
17251;SDS011;8742;51.716;8.790;2023-06-22T10:47:58;8.02;;;6.68;;
17251;SDS011;8742;51.716;8.790;2023-06-22T10:50:25;8.65;;;6.97;;
17251;SDS011;8742;51.716;8.790;2023-06-22T10:52:53;7.45;;;6.60;;
17251;SDS011;8742;51.716;8.790;2023-06-22T10:55:22;8.73;;;6.63;;
17251;SDS011;8742;51.716;8.790;2023-06-22T10:57:48;8.63;;;6.85;;
17251;SDS011;8742;51.716;8.790;2023-06-22T11:00:15;7.07;;;6.38;;
17251;SDS011;8742;51.716;8.790;2023-06-22T11:02:42;6.95;;;6.25;;
17251;SDS011;8742;51.716;8.790;2023-06-22T11:05:09;8.05;;;6.60;;
17251;SDS011;8742;51.716;8.790;2023-06-22T11:07:37;8.77;;;6.57;;
17251;SDS011;8742;51.716;8.790;2023-06-22T11:10:04;7.85;;;6.30;;
17251;SDS011;8742;51.716;8.790;2023-06-22T11:12:33;11.18;;;7.07;;
17251;SDS011;8742;51.716;8.790;2023-06-22T11:15:00;8.38;;;6.85;;
17251;SDS011;8742;51.716;8.790;2023-06-22T11:17:27;9.85;;;6.55;;
17251;SDS011;8742;51.716;8.790;2023-06-22T11:19:54;9.88;;;6.78;;
17251;SDS011;8742;51.716;8.790;2023-06-22T11:22:20;12.80;;;6.03;;
17251;SDS011;8742;51.716;8.790;2023-06-22T11:24:47;7.53;;;6.72;;
17251;SDS011;8742;51.716;8.790;2023-06-22T11:27:14;9.40;;;7.05;;
17251;SDS011;8742;51.716;8.790;2023-06-22T11:29:43;8.35;;;6.10;;
17251;SDS011;8742;51.716;8.790;2023-06-22T11:32:09;7.00;;;6.15;;
17251;SDS011;8742;51.716;8.790;2023-06-22T11:34:36;7.47;;;6.45;;
17251;SDS011;8742;51.716;8.790;2023-06-22T11:37:03;9.18;;;6.35;;
17251;SDS011;8742;51.716;8.790;2023-06-22T11:39:30;11.57;;;6.88;;
17251;SDS011;8742;51.716;8.790;2023-06-22T11:41:57;8.18;;;6.53;;
17251;SDS011;8742;51.716;8.790;2023-06-22T11:44:24;7.72;;;5.70;;
17251;SDS011;8742;51.716;8.790;2023-06-22T11:46:52;7.05;;;6.05;;
17251;SDS011;8742;51.716;8.790;2023-06-22T11:49:19;12.68;;;6.07;;
17251;SDS011;8742;51.716;8.790;2023-06-22T11:51:45;9.15;;;6.50;;
17251;SDS011;8742;51.716;8.790;2023-06-22T11:54:12;8.07;;;6.00;;
17251;SDS011;8742;51.716;8.790;2023-06-22T11:56:39;8.10;;;6.53;;
17251;SDS011;8742;51.716;8.790;2023-06-22T11:59:06;9.93;;;6.38;;
17251;SDS011;8742;51.716;8.790;2023-06-22T12:01:33;9.70;;;7.00;;
17251;SDS011;8742;51.716;8.790;2023-06-22T12:04:01;8.48;;;6.95;;
17251;SDS011;8742;51.716;8.790;2023-06-22T12:06:30;11.15;;;7.45;;
17251;SDS011;8742;51.716;8.790;2023-06-22T12:08:57;9.43;;;7.03;;
17251;SDS011;8742;51.716;8.790;2023-06-22T12:11:24;10.52;;;7.65;;
17251;SDS011;8742;51.716;8.790;2023-06-22T12:13:51;9.30;;;7.70;;
17251;SDS011;8742;51.716;8.790;2023-06-22T12:16:17;11.00;;;8.88;;
17251;SDS011;8742;51.716;8.790;2023-06-22T12:18:46;10.00;;;7.93;;
17251;SDS011;8742;51.716;8.790;2023-06-22T12:21:15;11.85;;;8.40;;
17251;SDS011;8742;51.716;8.790;2023-06-22T12:23:41;11.95;;;8.27;;
17251;SDS011;8742;51.716;8.790;2023-06-22T12:26:08;10.68;;;8.60;;
17251;SDS011;8742;51.716;8.790;2023-06-22T12:28:35;17.00;;;8.07;;
17251;SDS011;8742;51.716;8.790;2023-06-22T12:31:02;11.77;;;8.57;;
17251;SDS011;8742;51.716;8.790;2023-06-22T12:33:29;15.77;;;8.85;;
17251;SDS011;8742;51.716;8.790;2023-06-22T12:35:56;12.60;;;9.18;;
17251;SDS011;8742;51.716;8.790;2023-06-22T12:38:24;11.57;;;8.63;;
17251;SDS011;8742;51.716;8.790;2023-06-22T12:40:51;12.93;;;10.13;;
17251;SDS011;8742;51.716;8.790;2023-06-22T12:43:18;14.23;;;10.27;;
17251;SDS011;8742;51.716;8.790;2023-06-22T12:45:45;11.10;;;9.90;;
17251;SDS011;8742;51.716;8.790;2023-06-22T12:48:12;15.90;;;9.95;;
17251;SDS011;8742;51.716;8.790;2023-06-22T12:50:39;14.82;;;10.57;;
17251;SDS011;8742;51.716;8.790;2023-06-22T12:53:06;12.65;;;10.65;;
17251;SDS011;8742;51.716;8.790;2023-06-22T12:55:34;19.85;;;11.70;;
17251;SDS011;8742;51.716;8.790;2023-06-22T12:58:01;18.55;;;11.05;;
17251;SDS011;8742;51.716;8.790;2023-06-22T13:00:28;18.63;;;12.18;;
17251;SDS011;8742;51.716;8.790;2023-06-22T13:02:55;18.23;;;11.75;;
17251;SDS011;8742;51.716;8.790;2023-06-22T13:05:21;16.20;;;11.98;;
17251;SDS011;8742;51.716;8.790;2023-06-22T13:07:48;16.83;;;12.88;;
17251;SDS011;8742;51.716;8.790;2023-06-22T13:10:15;21.65;;;13.43;;
17251;SDS011;8742;51.716;8.790;2023-06-22T13:12:43;14.55;;;12.10;;
17251;SDS011;8742;51.716;8.790;2023-06-22T13:15:10;17.58;;;12.23;;
17251;SDS011;8742;51.716;8.790;2023-06-22T13:17:37;18.42;;;11.55;;
17251;SDS011;8742;51.716;8.790;2023-06-22T13:20:04;17.30;;;12.85;;
17251;SDS011;8742;51.716;8.790;2023-06-22T13:22:32;15.07;;;12.68;;
17251;SDS011;8742;51.716;8.790;2023-06-22T13:25:05;17.35;;;13.65;;
17251;SDS011;8742;51.716;8.790;2023-06-22T13:27:32;14.98;;;12.63;;
17251;SDS011;8742;51.716;8.790;2023-06-22T13:30:00;16.10;;;13.40;;
17251;SDS011;8742;51.716;8.790;2023-06-22T13:32:27;21.25;;;14.13;;
17251;SDS011;8742;51.716;8.790;2023-06-22T13:34:54;23.60;;;14.80;;
17251;SDS011;8742;51.716;8.790;2023-06-22T13:37:21;25.33;;;15.30;;
17251;SDS011;8742;51.716;8.790;2023-06-22T13:39:48;27.73;;;16.27;;
17251;SDS011;8742;51.716;8.790;2023-06-22T13:42:15;33.60;;;17.45;;
17251;SDS011;8742;51.716;8.790;2023-06-22T13:44:41;30.23;;;16.23;;
17251;SDS011;8742;51.716;8.790;2023-06-22T13:47:10;24.83;;;16.00;;
17251;SDS011;8742;51.716;8.790;2023-06-22T13:49:36;27.83;;;16.92;;
17251;SDS011;8742;51.716;8.790;2023-06-22T13:52:03;27.65;;;17.23;;
17251;SDS011;8742;51.716;8.790;2023-06-22T13:54:35;28.10;;;17.58;;
17251;SDS011;8742;51.716;8.790;2023-06-22T13:57:02;24.48;;;17.35;;
17251;SDS011;8742;51.716;8.790;2023-06-22T13:59:29;26.90;;;18.37;;
17251;SDS011;8742;51.716;8.790;2023-06-22T14:01:56;29.43;;;18.50;;
17251;SDS011;8742;51.716;8.790;2023-06-22T14:04:24;34.43;;;18.70;;
17251;SDS011;8742;51.716;8.790;2023-06-22T14:06:51;29.13;;;19.40;;
17251;SDS011;8742;51.716;8.790;2023-06-22T14:09:17;30.20;;;20.80;;
17251;SDS011;8742;51.716;8.790;2023-06-22T14:11:44;28.00;;;20.80;;
17251;SDS011;8742;51.716;8.790;2023-06-22T14:14:11;29.53;;;20.80;;
17251;SDS011;8742;51.716;8.790;2023-06-22T14:16:38;28.37;;;20.97;;
17251;SDS011;8742;51.716;8.790;2023-06-22T14:19:05;36.60;;;22.53;;
17251;SDS011;8742;51.716;8.790;2023-06-22T14:21:33;31.80;;;22.37;;
17251;SDS011;8742;51.716;8.790;2023-06-22T14:24:00;34.40;;;23.77;;
17251;SDS011;8742;51.716;8.790;2023-06-22T14:26:26;37.57;;;25.30;;
17251;SDS011;8742;51.716;8.790;2023-06-22T14:28:53;36.50;;;24.87;;
17251;SDS011;8742;51.716;8.790;2023-06-22T14:31:21;33.50;;;24.43;;
17251;SDS011;8742;51.716;8.790;2023-06-22T14:33:49;28.67;;;21.50;;
17251;SDS011;8742;51.716;8.790;2023-06-22T14:36:16;33.73;;;23.00;;
17251;SDS011;8742;51.716;8.790;2023-06-22T14:38:45;34.53;;;22.40;;
17251;SDS011;8742;51.716;8.790;2023-06-22T14:41:12;32.07;;;21.37;;
17251;SDS011;8742;51.716;8.790;2023-06-22T14:43:43;30.50;;;21.73;;
17251;SDS011;8742;51.716;8.790;2023-06-22T14:46:11;34.23;;;22.50;;
17251;SDS011;8742;51.716;8.790;2023-06-22T14:48:38;30.53;;;22.30;;
17251;SDS011;8742;51.716;8.790;2023-06-22T14:51:05;40.53;;;23.27;;